createdAt,value
2017-07-11T00:00:45.348Z,14.10
2017-07-11T00:03:12.844Z,14.97
2017-07-11T00:05:40.298Z,16.40
2017-07-11T00:08:07.749Z,17.30
2017-07-11T00:10:35.213Z,16.93
2017-07-11T00:13:02.630Z,16.03
2017-07-11T00:15:30.070Z,16.00
2017-07-11T00:17:58.262Z,16.60
2017-07-11T00:20:25.697Z,16.00
2017-07-11T00:22:53.897Z,16.20
2017-07-11T00:25:21.341Z,17.30
2017-07-11T00:27:48.769Z,18.30
2017-07-11T00:30:16.973Z,17.07
2017-07-11T00:32:44.400Z,16.87
2017-07-11T00:35:12.601Z,16.03
2017-07-11T00:37:40.043Z,15.93
2017-07-11T00:40:08.221Z,15.23
2017-07-11T00:42:35.722Z,15.27
2017-07-11T00:45:03.157Z,15.37
2017-07-11T00:47:30.582Z,18.23
2017-07-11T00:49:58.776Z,17.27
2017-07-11T00:52:26.209Z,18.50
2017-07-11T00:54:54.438Z,18.10
2017-07-11T00:57:21.875Z,18.70
2017-07-11T00:59:49.291Z,18.13
2017-07-11T01:02:17.495Z,16.90
2017-07-11T01:04:44.959Z,18.00
2017-07-11T01:07:12.386Z,17.63
2017-07-11T01:09:40.576Z,17.70
2017-07-11T01:12:08.022Z,17.00
2017-07-11T01:14:36.206Z,17.30
2017-07-11T01:17:03.635Z,18.60
2017-07-11T01:19:31.822Z,19.33
2017-07-11T01:21:59.253Z,19.57
2017-07-11T01:24:26.687Z,19.90
2017-07-11T01:26:54.117Z,20.67
2017-07-11T01:29:21.554Z,20.43
2017-07-11T01:31:48.973Z,19.80
2017-07-11T01:34:16.397Z,22.23
2017-07-11T01:36:43.841Z,21.10
2017-07-11T01:39:11.265Z,21.97
2017-07-11T01:41:38.700Z,21.00
2017-07-11T01:44:06.118Z,21.27
2017-07-11T01:46:33.554Z,23.07
2017-07-11T01:49:00.981Z,22.57
2017-07-11T01:51:29.177Z,23.77
2017-07-11T01:53:56.603Z,24.77
2017-07-11T01:56:24.818Z,24.67
2017-07-11T01:58:52.248Z,23.87
2017-07-11T02:01:19.673Z,23.23
2017-07-11T02:03:47.102Z,24.73
2017-07-11T02:06:14.546Z,24.87
2017-07-11T02:08:41.970Z,23.83
2017-07-11T02:11:09.414Z,25.40
2017-07-11T02:13:37.615Z,24.53
2017-07-11T02:16:05.052Z,24.20
2017-07-11T02:18:33.249Z,25.70
2017-07-11T02:21:00.690Z,24.80
2017-07-11T02:23:28.132Z,24.70
2017-07-11T02:25:56.317Z,25.60
2017-07-11T02:28:23.744Z,26.40
2017-07-11T02:30:51.193Z,26.93
2017-07-11T02:33:18.605Z,26.60
2017-07-11T02:35:46.032Z,25.97
2017-07-11T02:38:13.470Z,24.53
2017-07-11T02:40:41.667Z,25.27
2017-07-11T02:43:09.101Z,26.40
2017-07-11T02:45:36.534Z,25.30
2017-07-11T02:48:03.964Z,25.47
2017-07-11T02:50:31.390Z,26.83
2017-07-11T02:52:58.826Z,27.00
2017-07-11T02:55:27.026Z,28.07
2017-07-11T02:57:54.460Z,26.80
2017-07-11T03:00:22.650Z,25.57
2017-07-11T03:02:50.078Z,27.67
2017-07-11T03:05:17.514Z,27.40
2017-07-11T03:07:44.959Z,28.40
2017-07-11T03:10:12.379Z,27.10
2017-07-11T03:12:39.829Z,27.60
2017-07-11T03:15:07.255Z,26.33
2017-07-11T03:17:34.694Z,27.47
2017-07-11T03:20:02.117Z,24.57
2017-07-11T03:22:29.585Z,26.50
2017-07-11T03:24:57.017Z,25.07
2017-07-11T03:27:24.456Z,25.20
2017-07-11T03:29:52.652Z,26.47
2017-07-11T03:32:20.101Z,25.83
2017-07-11T03:34:47.531Z,27.87
2017-07-11T03:37:15.722Z,30.60
2017-07-11T03:39:43.150Z,36.30
2017-07-11T03:42:11.377Z,37.50
2017-07-11T03:44:38.785Z,37.20
2017-07-11T03:47:06.981Z,39.70
2017-07-11T03:49:34.417Z,38.57
2017-07-11T03:52:02.614Z,40.20
2017-07-11T03:54:30.043Z,40.70
2017-07-11T03:56:58.245Z,40.83
2017-07-11T03:59:25.684Z,41.10
2017-07-11T04:01:53.900Z,39.60
2017-07-11T04:04:21.306Z,40.67
2017-07-11T04:06:49.503Z,40.37
2017-07-11T04:09:16.991Z,38.40
2017-07-11T04:11:44.415Z,40.00
2017-07-11T04:14:11.854Z,38.10
2017-07-11T04:16:40.049Z,39.87
2017-07-11T04:19:07.485Z,40.57
2017-07-11T04:21:35.699Z,40.30
2017-07-11T04:24:03.124Z,41.20
2017-07-11T04:26:30.561Z,42.30
2017-07-11T04:28:58.767Z,40.97
2017-07-11T04:31:26.191Z,41.67
2017-07-11T04:33:54.381Z,40.50
2017-07-11T04:36:21.814Z,42.30
2017-07-11T04:38:50.009Z,40.43
2017-07-11T04:41:17.441Z,40.77
2017-07-11T04:43:45.642Z,46.00
2017-07-11T04:46:13.069Z,45.40
2017-07-11T04:48:41.273Z,44.47
2017-07-11T04:51:08.715Z,41.30
2017-07-11T04:53:36.909Z,41.70
2017-07-11T04:56:04.343Z,42.00
2017-07-11T04:58:32.536Z,40.77
2017-07-11T05:00:59.987Z,37.90
2017-07-11T05:03:27.417Z,40.00
2017-07-11T05:05:54.843Z,38.47
2017-07-11T05:08:22.264Z,36.93
2017-07-11T05:10:49.703Z,37.83
2017-07-11T05:13:17.460Z,37.13
2017-07-11T05:15:45.664Z,37.20
2017-07-11T05:18:13.101Z,38.83
2017-07-11T05:20:40.540Z,36.17
2017-07-11T05:23:08.729Z,36.87
2017-07-11T05:25:36.177Z,37.03
2017-07-11T05:28:04.369Z,36.40
2017-07-11T05:30:31.801Z,37.00
2017-07-11T05:32:59.997Z,34.87
2017-07-11T05:35:27.421Z,33.93
2017-07-11T05:37:55.616Z,31.93
2017-07-11T05:40:23.041Z,33.30
2017-07-11T05:42:50.468Z,32.60
2017-07-11T05:45:17.909Z,32.53
2017-07-11T05:47:45.332Z,34.27
2017-07-11T05:50:12.776Z,33.47
2017-07-11T05:52:40.969Z,34.33
2017-07-11T05:55:08.401Z,33.03
2017-07-11T05:57:35.833Z,31.40
2017-07-11T06:00:03.261Z,32.60
2017-07-11T06:02:30.700Z,32.03
2017-07-11T06:04:58.120Z,31.37
2017-07-11T06:07:25.553Z,30.67
2017-07-11T06:09:52.998Z,30.17
2017-07-11T06:12:20.425Z,31.30
2017-07-11T06:14:47.861Z,30.40
2017-07-11T06:17:15.308Z,29.90
2017-07-11T06:19:42.790Z,30.00
2017-07-11T06:22:10.224Z,28.40
2017-07-11T06:24:38.419Z,28.40
2017-07-11T06:27:05.883Z,26.83
2017-07-11T06:29:33.323Z,27.40
2017-07-11T06:32:01.541Z,26.67
2017-07-11T06:34:29.995Z,23.30
2017-07-11T06:36:57.433Z,22.70
2017-07-11T06:39:24.870Z,23.03
2017-07-11T06:41:53.057Z,21.40
2017-07-11T06:44:20.501Z,22.30
2017-07-11T06:46:48.691Z,22.10
2017-07-11T06:49:16.185Z,22.50
2017-07-11T06:51:43.610Z,21.70
2017-07-11T06:54:11.041Z,22.20
2017-07-11T06:56:39.263Z,23.17
2017-07-11T06:59:06.690Z,22.67
2017-07-11T07:01:34.144Z,22.77
2017-07-11T07:04:01.572Z,24.27
2017-07-11T07:06:29.795Z,24.50
2017-07-11T07:08:57.233Z,24.40
2017-07-11T07:11:24.680Z,24.60
2017-07-11T07:13:52.122Z,22.17
2017-07-11T07:16:20.315Z,23.13
2017-07-11T07:18:47.748Z,23.67
2017-07-11T07:21:15.957Z,22.87
2017-07-11T07:23:43.410Z,23.03
2017-07-11T07:26:10.826Z,25.17
2017-07-11T07:28:38.337Z,24.87
2017-07-11T07:31:05.771Z,26.57
2017-07-11T07:33:33.192Z,27.77
2017-07-11T07:36:01.400Z,26.47
2017-07-11T07:38:28.829Z,28.40
2017-07-11T07:40:57.089Z,28.07
2017-07-11T07:43:24.518Z,27.67
2017-07-11T07:45:51.951Z,28.13
2017-07-11T07:48:19.394Z,25.83
2017-07-11T07:50:46.862Z,25.80
2017-07-11T07:53:14.278Z,25.93
2017-07-11T07:55:41.732Z,24.37
2017-07-11T07:58:09.241Z,24.80
2017-07-11T08:00:36.681Z,25.00
2017-07-11T08:03:04.165Z,23.57
2017-07-11T08:05:31.691Z,22.37
2017-07-11T08:07:59.125Z,23.03
2017-07-11T08:10:27.367Z,23.17
2017-07-11T08:12:54.806Z,22.07
2017-07-11T08:15:22.221Z,21.67
2017-07-11T08:17:49.661Z,21.70
2017-07-11T08:20:17.855Z,21.60
2017-07-11T08:22:45.277Z,21.10
2017-07-11T08:25:12.768Z,21.30
2017-07-11T08:27:40.970Z,21.00
2017-07-11T08:30:08.624Z,20.00
2017-07-11T08:32:36.092Z,18.20
2017-07-11T08:35:03.545Z,18.07
2017-07-11T08:37:30.988Z,17.10
2017-07-11T08:39:58.440Z,17.90
2017-07-11T08:42:25.901Z,16.47
2017-07-11T08:44:53.326Z,16.60
2017-07-11T08:47:21.521Z,15.27
2017-07-11T08:49:48.957Z,16.77
2017-07-11T08:52:17.208Z,15.00
2017-07-11T08:54:44.669Z,14.83
2017-07-11T08:57:12.085Z,15.20
2017-07-11T08:59:39.521Z,15.27
2017-07-11T09:02:06.953Z,15.40
2017-07-11T09:04:35.145Z,14.60
2017-07-11T09:07:02.570Z,15.07
2017-07-11T09:09:30.818Z,16.80
2017-07-11T09:11:58.236Z,16.40
2017-07-11T09:14:25.666Z,16.27
2017-07-11T09:16:53.866Z,17.57
2017-07-11T09:19:21.290Z,16.30
2017-07-11T09:21:49.484Z,15.00
2017-07-11T09:24:16.913Z,14.80
2017-07-11T09:26:45.098Z,16.23
2017-07-11T09:29:13.300Z,15.80
2017-07-11T09:31:40.728Z,16.90
2017-07-11T09:34:08.923Z,16.27
2017-07-11T09:36:36.358Z,17.53
2017-07-11T09:39:04.550Z,16.53
2017-07-11T09:41:31.969Z,15.80
2017-07-11T09:43:59.425Z,16.67
2017-07-11T09:46:26.849Z,16.07
2017-07-11T09:48:54.277Z,15.17
2017-07-11T09:51:21.719Z,15.90
2017-07-11T09:53:49.150Z,16.43
2017-07-11T09:56:16.584Z,16.10
2017-07-11T09:58:44.011Z,16.43
2017-07-11T10:01:11.446Z,17.00
2017-07-11T10:03:38.874Z,16.20
2017-07-11T10:06:06.302Z,17.30
2017-07-11T10:08:33.832Z,18.20
2017-07-11T10:11:01.273Z,17.13
2017-07-11T10:13:28.707Z,17.33
2017-07-11T10:15:56.896Z,18.67
2017-07-11T10:18:24.320Z,17.70
2017-07-11T10:20:51.751Z,19.53
2017-07-11T10:23:19.172Z,20.70
2017-07-11T10:25:46.597Z,20.00
2017-07-11T10:28:14.034Z,21.37
2017-07-11T10:30:41.470Z,21.73
2017-07-11T10:33:08.945Z,21.90
2017-07-11T10:35:36.386Z,22.70
2017-07-11T10:38:03.811Z,22.20
2017-07-11T10:40:31.249Z,22.33
2017-07-11T10:42:59.445Z,21.60
2017-07-11T10:45:26.870Z,21.23
2017-07-11T10:47:55.455Z,23.63
2017-07-11T10:50:23.638Z,23.97
2017-07-11T10:52:51.078Z,24.47
2017-07-11T10:55:19.306Z,23.83
2017-07-11T10:57:46.733Z,24.47
2017-07-11T11:00:14.167Z,24.53
2017-07-11T11:02:42.361Z,23.77
2017-07-11T11:05:09.799Z,25.00
2017-07-11T11:07:37.985Z,25.43
2017-07-11T11:10:05.417Z,25.40
2017-07-11T11:12:33.690Z,24.87
2017-07-11T11:15:01.130Z,25.90
2017-07-11T11:17:28.554Z,25.30
2017-07-11T11:19:55.993Z,25.27
2017-07-11T11:22:23.421Z,24.40
2017-07-11T11:24:51.623Z,25.37
2017-07-11T11:27:19.073Z,24.93
2017-07-11T11:29:46.505Z,26.90
2017-07-11T11:32:14.705Z,25.87
2017-07-11T11:34:42.142Z,26.40
2017-07-11T11:37:09.581Z,25.07
2017-07-11T11:39:37.019Z,25.80
2017-07-11T11:42:04.438Z,26.23
2017-07-11T11:44:31.871Z,28.40
2017-07-11T11:46:59.316Z,26.73
2017-07-11T11:49:27.547Z,27.30
2017-07-11T11:51:54.982Z,27.70
2017-07-11T11:54:22.421Z,28.37
2017-07-11T11:56:49.860Z,27.43
2017-07-11T11:59:18.054Z,29.70
2017-07-11T12:01:45.489Z,28.17
2017-07-11T12:04:13.679Z,28.30
2017-07-11T12:06:41.261Z,28.90
2017-07-11T12:09:08.686Z,28.77
2017-07-11T12:11:36.123Z,28.47
2017-07-11T12:14:04.337Z,28.73
2017-07-11T12:16:31.777Z,29.43
2017-07-11T12:18:59.214Z,29.80
2017-07-11T12:21:27.463Z,30.23
2017-07-11T12:23:54.888Z,29.87
2017-07-11T12:26:22.406Z,29.67
2017-07-11T12:28:50.602Z,30.87
2017-07-11T12:31:18.038Z,29.80
2017-07-11T12:33:46.229Z,28.80
2017-07-11T12:36:13.671Z,30.00
2017-07-11T12:38:41.866Z,29.00
2017-07-11T12:41:09.294Z,28.90
2017-07-11T12:43:37.499Z,28.33
2017-07-11T12:46:04.941Z,29.97
2017-07-11T12:48:32.375Z,29.83
2017-07-11T12:51:00.606Z,27.47
2017-07-11T12:53:28.036Z,28.03
2017-07-11T12:55:55.463Z,27.17
2017-07-11T12:58:23.663Z,25.30
2017-07-11T13:00:51.098Z,25.60
2017-07-11T13:03:19.301Z,24.13
2017-07-11T13:05:46.750Z,24.30
2017-07-11T13:08:14.185Z,21.37
2017-07-11T13:10:41.594Z,20.47
2017-07-11T13:13:09.035Z,20.40
2017-07-11T13:15:36.704Z,19.43
2017-07-11T13:18:03.939Z,18.57
2017-07-11T13:20:31.373Z,18.23
2017-07-11T13:22:58.866Z,18.90
2017-07-11T13:25:26.289Z,17.23
2017-07-11T13:27:53.741Z,16.77
2017-07-11T13:30:22.021Z,16.40
2017-07-11T13:32:49.445Z,18.33
2017-07-11T13:35:17.642Z,17.90
2017-07-11T13:37:45.082Z,19.43
2017-07-11T13:40:13.313Z,18.70
2017-07-11T13:42:40.777Z,18.27
2017-07-11T13:45:08.202Z,17.47
2017-07-11T13:47:35.634Z,17.63
2017-07-11T13:50:03.955Z,16.00
2017-07-11T13:52:31.382Z,16.33
2017-07-11T13:54:58.814Z,16.57
2017-07-11T13:57:27.045Z,16.10
2017-07-11T13:59:54.474Z,15.37
2017-07-11T14:02:21.960Z,13.80
2017-07-11T14:04:49.389Z,14.60
2017-07-11T14:07:16.822Z,15.90
2017-07-11T14:09:45.043Z,15.60
2017-07-11T14:12:12.480Z,15.60
2017-07-11T14:14:39.906Z,14.93
2017-07-11T14:17:08.115Z,14.57
2017-07-11T14:19:35.536Z,15.37
2017-07-11T14:22:03.738Z,14.93
2017-07-11T14:24:31.167Z,14.93
2017-07-11T14:26:59.365Z,13.90
2017-07-11T14:29:26.806Z,14.17
2017-07-11T14:31:54.232Z,14.70
2017-07-11T14:34:21.766Z,14.50
2017-07-11T14:36:49.208Z,13.80
2017-07-11T14:39:16.645Z,12.73
2017-07-11T14:41:44.105Z,13.77
2017-07-11T14:44:11.526Z,13.23
2017-07-11T14:46:39.718Z,14.40
2017-07-11T14:49:07.162Z,12.97
2017-07-11T14:51:34.597Z,13.73
2017-07-11T14:54:02.039Z,14.23
2017-07-11T14:56:29.490Z,13.30
2017-07-11T14:58:56.903Z,13.30
2017-07-11T15:01:24.330Z,13.30
2017-07-11T15:03:52.525Z,13.27
2017-07-11T15:06:19.966Z,12.90
2017-07-11T15:08:48.166Z,12.83
2017-07-11T15:11:15.598Z,12.97
2017-07-11T15:13:43.803Z,12.60
2017-07-11T15:16:11.246Z,13.10
2017-07-11T15:18:38.727Z,12.87
2017-07-11T15:21:06.158Z,11.90
2017-07-11T15:23:33.630Z,11.83
2017-07-11T15:26:01.053Z,11.40
2017-07-11T15:28:28.488Z,11.87
2017-07-11T15:30:56.021Z,11.90
2017-07-11T15:33:23.459Z,10.23
2017-07-11T15:35:50.880Z,11.80
2017-07-11T15:38:18.315Z,11.23
2017-07-11T15:40:45.927Z,11.53
2017-07-11T15:43:13.340Z,9.80
2017-07-11T15:45:41.558Z,10.73
2017-07-11T15:48:08.994Z,9.90
2017-07-11T15:50:36.474Z,10.10
2017-07-11T15:53:04.038Z,9.20
2017-07-11T15:55:31.472Z,9.00
2017-07-11T15:57:58.915Z,8.43
2017-07-11T16:00:26.353Z,9.20
2017-07-11T16:02:54.720Z,8.60
2017-07-11T16:05:22.933Z,8.17
2017-07-11T16:07:50.357Z,8.80
2017-07-11T16:10:17.785Z,8.23
2017-07-11T16:12:45.211Z,8.50
2017-07-11T16:15:12.649Z,7.90
2017-07-11T16:17:40.070Z,7.80
2017-07-11T16:20:07.595Z,7.50
2017-07-11T16:22:35.048Z,7.80
2017-07-11T16:25:02.483Z,7.50
2017-07-11T16:27:29.969Z,7.77
2017-07-11T16:29:57.408Z,8.00
2017-07-11T16:32:24.837Z,7.53
2017-07-11T16:34:52.266Z,8.10
2017-07-11T16:37:20.455Z,7.63
2017-07-11T16:39:48.654Z,8.07
2017-07-11T16:42:16.131Z,6.87
2017-07-11T16:44:43.569Z,7.40
2017-07-11T16:47:10.998Z,6.80
2017-07-11T16:49:39.192Z,7.07
2017-07-11T16:52:06.617Z,6.70
2017-07-11T16:54:34.838Z,6.87
2017-07-11T16:57:02.246Z,5.40
2017-07-11T16:59:30.443Z,5.40
2017-07-11T17:01:57.865Z,5.17
2017-07-11T17:04:25.305Z,5.70
2017-07-11T17:06:52.743Z,5.30
2017-07-11T17:09:20.169Z,5.60
2017-07-11T17:11:47.597Z,5.50
2017-07-11T17:14:15.802Z,5.67
2017-07-11T17:16:43.235Z,5.50
2017-07-11T17:19:11.446Z,5.70
2017-07-11T17:21:38.932Z,5.60
2017-07-11T17:24:06.357Z,5.40
2017-07-11T17:26:33.785Z,5.10
2017-07-11T17:29:01.982Z,5.60
2017-07-11T17:31:29.469Z,5.43
2017-07-11T17:33:56.894Z,5.43
2017-07-11T17:36:24.317Z,5.30
2017-07-11T17:38:52.513Z,5.47
2017-07-11T17:41:19.934Z,5.60
2017-07-11T17:43:48.155Z,5.17
2017-07-11T17:46:15.582Z,5.20
2017-07-11T17:48:43.834Z,5.60
2017-07-11T17:51:11.270Z,5.27
2017-07-11T17:53:38.718Z,4.97
2017-07-11T17:56:06.163Z,5.50
2017-07-11T17:58:33.612Z,5.60
2017-07-11T18:01:01.049Z,5.20
2017-07-11T18:03:28.475Z,6.37
2017-07-11T18:05:56.680Z,5.53
2017-07-11T18:08:24.134Z,5.10
2017-07-11T18:10:51.551Z,5.10
2017-07-11T18:13:18.982Z,5.40
2017-07-11T18:15:46.426Z,5.57
2017-07-11T18:18:13.881Z,5.00
2017-07-11T18:20:41.385Z,5.37
2017-07-11T18:23:09.175Z,5.03
2017-07-11T18:25:36.646Z,5.20
2017-07-11T18:28:04.133Z,6.10
2017-07-11T18:30:31.578Z,5.80
2017-07-11T18:32:59.190Z,5.70
2017-07-11T18:35:27.418Z,5.53
2017-07-11T18:37:54.856Z,6.07
2017-07-11T18:40:50.865Z,5.83
2017-07-11T18:43:23.218Z,5.70
2017-07-11T18:45:51.486Z,6.30
2017-07-11T18:48:19.154Z,6.57
2017-07-11T18:50:46.624Z,6.70
2017-07-11T18:53:14.834Z,6.93
2017-07-11T18:55:42.348Z,6.70
2017-07-11T18:58:10.592Z,6.37
2017-07-11T19:00:38.082Z,6.00
2017-07-11T19:03:05.549Z,6.53
2017-07-11T19:05:33.760Z,6.90
2017-07-11T19:08:01.253Z,6.97
2017-07-11T19:10:28.736Z,7.03
2017-07-11T19:12:56.270Z,6.73
2017-07-11T19:15:23.900Z,7.47
2017-07-11T19:17:51.635Z,7.43
2017-07-11T19:20:19.195Z,6.87
2017-07-11T19:22:47.406Z,7.00
2017-07-11T19:25:14.849Z,7.00
2017-07-11T19:27:42.335Z,6.73
2017-07-11T19:30:09.795Z,6.70
2017-07-11T19:32:37.278Z,6.50
2017-07-11T19:35:05.529Z,6.20
2017-07-11T19:37:32.951Z,7.20
2017-07-11T19:40:00.373Z,6.97
2017-07-11T19:42:28.598Z,7.00
2017-07-11T19:44:56.073Z,7.10
2017-07-11T19:47:23.573Z,7.37
2017-07-11T19:49:51.031Z,6.73
2017-07-11T19:52:18.506Z,7.07
2017-07-11T19:54:46.024Z,7.10
2017-07-11T19:57:13.492Z,7.07
2017-07-11T19:59:42.003Z,7.37
2017-07-11T20:02:09.449Z,7.50
2017-07-11T20:04:36.866Z,7.53
2017-07-11T20:07:05.123Z,7.60
2017-07-11T20:09:32.728Z,8.07
2017-07-11T20:12:00.969Z,8.30
2017-07-11T20:14:28.587Z,8.40
2017-07-11T20:16:56.364Z,8.50
2017-07-11T20:19:23.850Z,8.80
2017-07-11T20:21:51.340Z,10.57
2017-07-11T20:24:18.798Z,9.87
2017-07-11T20:26:46.284Z,10.43
2017-07-11T20:29:13.767Z,10.23
2017-07-11T20:31:41.255Z,9.63
2017-07-11T20:34:08.718Z,9.37
2017-07-11T20:36:36.249Z,8.70
2017-07-11T20:39:03.672Z,9.67
2017-07-11T20:41:31.132Z,10.10
2017-07-11T20:43:58.663Z,10.00
2017-07-11T20:46:58.955Z,10.30
2017-07-11T23:05:23.621Z,6.13
2017-07-11T23:07:52.599Z,6.80
2017-07-11T23:10:20.061Z,6.43
2017-07-11T23:12:47.485Z,6.93
2017-07-11T23:15:15.690Z,7.00
2017-07-11T23:17:43.119Z,7.17
2017-07-11T23:20:11.314Z,6.90
2017-07-11T23:22:38.741Z,6.13
2017-07-11T23:25:06.941Z,6.80
2017-07-11T23:27:34.359Z,6.73
2017-07-11T23:30:01.794Z,7.23
2017-07-11T23:32:29.215Z,6.50
2017-07-11T23:34:56.633Z,6.30
2017-07-11T23:37:24.829Z,6.67
2017-07-11T23:39:52.283Z,5.77
2017-07-11T23:42:19.709Z,7.00
2017-07-11T23:44:47.153Z,7.33
2017-07-11T23:47:14.586Z,6.87
2017-07-11T23:49:42.010Z,6.60
2017-07-11T23:52:09.439Z,6.20
2017-07-11T23:54:37.637Z,6.60
2017-07-11T23:57:05.061Z,6.60
2017-07-11T23:59:32.511Z,6.67
